Allendale, New Jersey
Current Conditions -  °F | °C
As of 3:51 AM on Tuesday 21 Oct 2014 (Local Time) from KTEB Reporting Station
Broken Clouds Broken Clouds  
Wind Chill: 11°   Ceiling: 9000
Heat Index: 11°   Visibility: 10mi
Dew Point:   Wind: 3mph
Humidity: 80%   Direction: 330°NNW
Pressure: 29.9"   Gusts: NA
Location:  41.03°N, 74.14°W
Report Text: KTEB 210751Z 33003KT 10SM BKN090 11/07 A2990 RMK AO2 SLP126 T01060072
Loading
Personal Weather Stations






























Interactive Weather Map
Tropical Storm Tracking
New forecast layout! Learn more

10-Day Weather Forecast

Advertisements
Track Severe Weather on mobile